ZHB YPJT-YPPH
Flight info
| Callsign | ZHB |
|---|---|
| Flight time | 0h -6m |
| Altitude | 1500 |
| Route | FREM DCT CTE DCT PCTY |
| Aircraft | C172/L-SFG/C |
Departure
| Time | 2026-04-25 05:50 |
|---|---|
| Airport | Perth Jandakot Airport (YPJT) |
Arrival
| Time | 2026-04-25 05:43 |
|---|---|
| Airport | Perth International Airport (YPPH) |
| Time | Latitude | Longitude | Altitude | Speed | Heading |
|---|---|---|---|---|---|
| 2026-04-25 05:43 | -32.09220 | 115.88259 | 94 ft | 0 kts | 355° |
| 2026-04-25 05:46 | -32.09219 | 115.88259 | 94 ft | 0 kts | 351° |
| 2026-04-25 05:46 | -32.09228 | 115.88234 | 94 ft | 5 kts | 179° |
| 2026-04-25 05:46 | -32.09249 | 115.88255 | 94 ft | 3 kts | 128° |
| 2026-04-25 05:47 | -32.09254 | 115.88262 | 94 ft | 0 kts | 129° |
| 2026-04-25 05:47 | -32.09268 | 115.88279 | 94 ft | 6 kts | 134° |
| 2026-04-25 05:47 | -32.09306 | 115.88330 | 93 ft | 10 kts | 134° |
| 2026-04-25 05:47 | -32.09302 | 115.88408 | 94 ft | 12 kts | 53° |
| 2026-04-25 05:48 | -32.09263 | 115.88475 | 93 ft | 8 kts | 70° |
| 2026-04-25 05:48 | -32.09278 | 115.88506 | 95 ft | 0 kts | 155° |
| 2026-04-25 05:48 | -32.09309 | 115.88532 | 93 ft | 9 kts | 139° |
| 2026-04-25 05:48 | -32.09356 | 115.88512 | 92 ft | 13 kts | 236° |
| 2026-04-25 05:49 | -32.09516 | 115.88249 | 95 ft | 62 kts | 235° |
| 2026-04-25 05:49 | -32.09785 | 115.87785 | 214 ft | 78 kts | 236° |
| 2026-04-25 05:49 | -32.10100 | 115.87245 | 467 ft | 75 kts | 237° |
| 2026-04-25 05:49 | -32.10437 | 115.86735 | 667 ft | 86 kts | 231° |
| 2026-04-25 05:50 | -32.10807 | 115.86219 | 1002 ft | 78 kts | 231° |
| 2026-04-25 05:50 | -32.11166 | 115.85642 | 1120 ft | 93 kts | 234° |
| 2026-04-25 05:50 | -32.11356 | 115.85287 | 1186 ft | 100 kts | 238° |
| 2026-04-25 05:51 | -32.11418 | 115.85161 | 1202 ft | 103 kts | 238° |
| 2026-04-25 05:51 | -32.11777 | 115.84390 | 1067 ft | 110 kts | 240° |
| 2026-04-25 05:51 | -32.12083 | 115.83619 | 1095 ft | 100 kts | 248° |
| 2026-04-25 05:52 | -32.12157 | 115.82765 | 959 ft | 111 kts | 279° |
| 2026-04-25 05:52 | -32.11739 | 115.82061 | 1026 ft | 106 kts | 313° |
| 2026-04-25 05:52 | -32.11201 | 115.81467 | 1049 ft | 108 kts | 314° |
| 2026-04-25 05:52 | -32.10646 | 115.80843 | 1108 ft | 108 kts | 313° |
| 2026-04-25 05:53 | -32.10114 | 115.80251 | 1306 ft | 104 kts | 314° |
| 2026-04-25 05:53 | -32.09568 | 115.79663 | 1414 ft | 110 kts | 314° |
| 2026-04-25 05:53 | -32.09011 | 115.79054 | 1519 ft | 108 kts | 315° |
| 2026-04-25 05:53 | -32.08397 | 115.78453 | 1526 ft | 117 kts | 321° |
| 2026-04-25 05:54 | -32.07952 | 115.78112 | 1541 ft | 114 kts | 328° |
| 2026-04-25 05:54 | -32.06936 | 115.77691 | 1494 ft | 118 kts | 346° |
| 2026-04-25 05:54 | -32.05611 | 115.77412 | 1479 ft | 117 kts | 349° |
| 2026-04-25 05:55 | -32.04556 | 115.77147 | 1470 ft | 118 kts | 346° |
| 2026-04-25 05:55 | -32.03769 | 115.76989 | 1515 ft | 116 kts | 351° |
| 2026-04-25 05:55 | -32.02986 | 115.76804 | 1552 ft | 116 kts | 346° |
| 2026-04-25 05:55 | -32.02186 | 115.76569 | 1540 ft | 119 kts | 345° |
| 2026-04-25 05:56 | -32.01390 | 115.76337 | 1521 ft | 117 kts | 345° |
| 2026-04-25 05:56 | -32.00588 | 115.76104 | 1474 ft | 118 kts | 346° |
| 2026-04-25 05:56 | -32.00063 | 115.75974 | 1476 ft | 115 kts | 348° |
| 2026-04-25 05:56 | -31.99294 | 115.75738 | 1434 ft | 115 kts | 339° |
| 2026-04-25 05:57 | -31.98597 | 115.75888 | 1545 ft | 98 kts | 63° |
| 2026-04-25 05:57 | -31.98360 | 115.76672 | 1475 ft | 107 kts | 79° |
| 2026-04-25 05:57 | -31.98193 | 115.77563 | 1453 ft | 111 kts | 84° |
| 2026-04-25 05:57 | -31.98051 | 115.78430 | 1565 ft | 106 kts | 81° |
| 2026-04-25 05:58 | -31.97892 | 115.79290 | 1583 ft | 113 kts | 79° |
| 2026-04-25 05:58 | -31.97727 | 115.80197 | 1572 ft | 113 kts | 83° |
| 2026-04-25 05:58 | -31.97581 | 115.81098 | 1610 ft | 112 kts | 84° |
| 2026-04-25 05:58 | -31.97418 | 115.82009 | 1567 ft | 117 kts | 81° |
| 2026-04-25 05:59 | -31.97250 | 115.82959 | 1569 ft | 118 kts | 82° |
| 2026-04-25 05:59 | -31.97076 | 115.83907 | 1518 ft | 114 kts | 83° |
| 2026-04-25 05:59 | -31.96920 | 115.84818 | 1445 ft | 116 kts | 82° |
| 2026-04-25 05:59 | -31.96759 | 115.85751 | 1429 ft | 116 kts | 83° |
| 2026-04-25 06:00 | -31.96519 | 115.86646 | 1427 ft | 117 kts | 71° |
| 2026-04-25 06:00 | -31.96174 | 115.87509 | 1443 ft | 114 kts | 69° |
| 2026-04-25 06:00 | -31.95836 | 115.88336 | 1482 ft | 112 kts | 69° |
| 2026-04-25 06:00 | -31.95519 | 115.89198 | 1399 ft | 118 kts | 75° |
| 2026-04-25 06:01 | -31.95537 | 115.90119 | 1304 ft | 112 kts | 117° |
| 2026-04-25 06:01 | -31.95911 | 115.90883 | 1288 ft | 101 kts | 125° |
| 2026-04-25 06:01 | -31.96253 | 115.91557 | 1294 ft | 94 kts | 124° |
| 2026-04-25 06:01 | -31.96566 | 115.92231 | 1258 ft | 93 kts | 123° |
| 2026-04-25 06:02 | -31.96852 | 115.92811 | 1170 ft | 100 kts | 126° |
| 2026-04-25 06:03 | -31.97178 | 115.93524 | 1173 ft | 96 kts | 120° |
| 2026-04-25 06:03 | -31.97410 | 115.94140 | 1381 ft | 76 kts | 117° |
| 2026-04-25 06:04 | -31.97489 | 115.94739 | 1600 ft | 78 kts | 83° |
| 2026-04-25 06:04 | -31.97116 | 115.95306 | 1563 ft | 104 kts | 43° |
| 2026-04-25 06:04 | -31.96481 | 115.95753 | 1477 ft | 105 kts | 24° |
| 2026-04-25 06:04 | -31.95813 | 115.96012 | 1438 ft | 97 kts | 16° |
| 2026-04-25 06:05 | -31.95187 | 115.96229 | 1227 ft | 96 kts | 17° |
| 2026-04-25 06:05 | -31.94661 | 115.96665 | 1040 ft | 94 kts | 54° |
| 2026-04-25 06:05 | -31.94447 | 115.97398 | 937 ft | 95 kts | 96° |
| 2026-04-25 06:05 | -31.94470 | 115.98119 | 1012 ft | 83 kts | 76° |
| 2026-04-25 06:06 | -31.94015 | 115.98501 | 998 ft | 87 kts | 18° |
| 2026-04-25 06:06 | -31.93409 | 115.98765 | 892 ft | 94 kts | 24° |
| 2026-04-25 06:06 | -31.92826 | 115.99070 | 969 ft | 89 kts | 26° |
| 2026-04-25 06:06 | -31.92242 | 115.99384 | 961 ft | 97 kts | 27° |
| 2026-04-25 06:07 | -31.91616 | 115.99558 | 964 ft | 93 kts | 348° |
| 2026-04-25 06:07 | -31.91057 | 115.99214 | 919 ft | 92 kts | 315° |
| 2026-04-25 06:07 | -31.90712 | 115.98597 | 872 ft | 89 kts | 286° |
| 2026-04-25 06:07 | -31.90617 | 115.97912 | 845 ft | 85 kts | 261° |
| 2026-04-25 06:08 | -31.90864 | 115.97352 | 804 ft | 72 kts | 204° |
| 2026-04-25 06:08 | -31.91326 | 115.97261 | 715 ft | 64 kts | 190° |
| 2026-04-25 06:08 | -31.91767 | 115.97157 | 551 ft | 65 kts | 195° |
| 2026-04-25 06:08 | -31.92193 | 115.97027 | 396 ft | 67 kts | 193° |
| 2026-04-25 06:09 | -31.92653 | 115.96903 | 256 ft | 66 kts | 194° |
| 2026-04-25 06:09 | -31.93085 | 115.96779 | 72 ft | 54 kts | 194° |
| 2026-04-25 06:09 | -31.93372 | 115.96696 | 49 ft | 47 kts | 194° |
| 2026-04-25 06:09 | -31.93798 | 115.96582 | 137 ft | 71 kts | 192° |
| 2026-04-25 06:10 | -31.94341 | 115.96430 | 266 ft | 85 kts | 194° |
| 2026-04-25 06:10 | -31.94922 | 115.96253 | 454 ft | 92 kts | 194° |
| 2026-04-25 06:10 | -31.95530 | 115.96110 | 754 ft | 86 kts | 192° |
| 2026-04-25 06:10 | -31.96128 | 115.95899 | 1072 ft | 93 kts | 219° |
| 2026-04-25 06:11 | -31.96290 | 115.95163 | 1158 ft | 108 kts | 282° |
| 2026-04-25 06:11 | -31.95950 | 115.94374 | 1144 ft | 111 kts | 321° |
| 2026-04-25 06:11 | -31.95218 | 115.94307 | 1071 ft | 110 kts | 15° |
| 2026-04-25 06:11 | -31.94460 | 115.94507 | 948 ft | 115 kts | 14° |
| 2026-04-25 06:12 | -31.93696 | 115.94777 | 897 ft | 115 kts | 18° |
| 2026-04-25 06:12 | -31.92948 | 115.95075 | 928 ft | 114 kts | 17° |
| 2026-04-25 06:12 | -31.92192 | 115.95354 | 930 ft | 114 kts | 17° |
| 2026-04-25 06:12 | -31.91491 | 115.95619 | 1009 ft | 103 kts | 16° |
| 2026-04-25 06:13 | -31.90860 | 115.95989 | 1008 ft | 100 kts | 49° |
| 2026-04-25 06:13 | -31.90710 | 115.96674 | 1025 ft | 84 kts | 103° |
| 2026-04-25 06:13 | -31.90819 | 115.97337 | 1008 ft | 81 kts | 117° |
| 2026-04-25 06:14 | -31.91643 | 115.97369 | 777 ft | 68 kts | 211° |
| 2026-04-25 06:14 | -31.92065 | 115.97113 | 606 ft | 68 kts | 201° |
| 2026-04-25 06:14 | -31.92501 | 115.96967 | 358 ft | 66 kts | 199° |
| 2026-04-25 06:14 | -31.92934 | 115.96827 | 90 ft | 59 kts | 193° |
| 2026-04-25 06:15 | -31.93247 | 115.96733 | 49 ft | 45 kts | 195° |
| 2026-04-25 06:15 | -31.93680 | 115.96611 | 93 ft | 77 kts | 192° |
| 2026-04-25 06:15 | -31.94242 | 115.96471 | 284 ft | 83 kts | 195° |
| 2026-04-25 06:15 | -31.94782 | 115.96303 | 546 ft | 83 kts | 200° |
| 2026-04-25 06:16 | -31.95359 | 115.96128 | 762 ft | 89 kts | 199° |
| 2026-04-25 06:16 | -31.95968 | 115.95928 | 1088 ft | 90 kts | 199° |
| 2026-04-25 06:16 | -31.96569 | 115.95723 | 1462 ft | 92 kts | 198° |